createdAt,value
2022-10-06T01:25:34.810Z,77.52
2022-10-06T01:28:06.921Z,77.31
2022-10-06T01:30:41.608Z,77.80
2022-10-06T01:33:12.592Z,77.76
2022-10-06T01:40:28.697Z,78.27
2022-10-06T01:42:58.597Z,78.09
2022-10-06T01:45:28.695Z,77.84
2022-10-06T01:47:57.225Z,78.19
2022-10-06T01:50:25.813Z,78.01
2022-10-06T01:52:56.845Z,77.86
2022-10-06T01:55:37.785Z,78.42
2022-10-06T02:02:57.152Z,78.36
2022-10-06T02:06:39.268Z,78.90
2022-10-06T02:09:18.090Z,79.36
2022-10-06T02:11:46.738Z,79.17
2022-10-06T02:14:18.265Z,78.95
2022-10-06T02:16:46.904Z,78.77
2022-10-06T02:19:29.600Z,78.98
2022-10-06T02:23:35.628Z,78.83
2022-10-06T02:25:01.353Z,79.13
2022-10-06T02:27:30.376Z,78.94
2022-10-06T02:29:59.070Z,78.63
2022-10-06T02:32:34.665Z,78.71
2022-10-06T02:35:05.997Z,79.15
2022-10-06T02:37:35.675Z,79.07
2022-10-06T02:40:06.037Z,78.94
2022-10-06T02:42:37.118Z,79.18
2022-10-06T02:45:07.240Z,79.50
2022-10-06T02:47:37.331Z,79.56
2022-10-06T02:50:08.058Z,79.93
2022-10-06T02:52:46.026Z,79.78
2022-10-06T02:55:23.334Z,80.19
2022-10-06T02:58:02.534Z,79.56
2022-10-06T03:00:31.633Z,79.41
2022-10-06T03:03:00.566Z,79.70
2022-10-06T03:05:31.596Z,80.16
2022-10-06T03:08:00.232Z,80.67
2022-10-06T03:10:28.891Z,80.71
2022-10-06T03:12:57.512Z,80.82
2022-10-06T03:15:32.601Z,81.12
2022-10-06T03:18:00.337Z,81.29
2022-10-06T03:20:28.827Z,81.51
2022-10-06T03:22:57.383Z,82.16
2022-10-06T03:25:26.340Z,81.80
2022-10-06T03:27:55.117Z,81.61
2022-10-06T03:30:24.288Z,81.53
2022-10-06T03:32:53.746Z,81.95
2022-10-06T03:35:22.310Z,81.89
2022-10-06T03:37:51.260Z,81.71
2022-10-06T03:40:20.877Z,81.95
2022-10-06T03:42:49.525Z,82.07
2022-10-06T03:45:18.176Z,81.87
2022-10-06T03:47:46.836Z,82.27
2022-10-06T03:50:16.911Z,81.76
2022-10-06T03:52:50.620Z,82.07
2022-10-06T03:55:19.303Z,81.67
2022-10-06T03:57:48.242Z,81.38
2022-10-06T04:00:17.622Z,81.27
2022-10-06T04:02:49.411Z,81.61
2022-10-06T04:05:18.585Z,81.79
2022-10-06T04:07:47.170Z,81.46
2022-10-06T04:10:18.932Z,81.61
2022-10-06T04:13:08.273Z,82.16
2022-10-06T04:16:30.929Z,82.12
2022-10-06T04:19:29.569Z,81.67
2022-10-06T04:21:58.105Z,81.53
2022-10-06T04:24:27.397Z,81.38
2022-10-06T04:27:16.615Z,81.30
2022-10-06T04:29:48.884Z,81.12
2022-10-06T04:32:18.123Z,81.03
2022-10-06T04:34:47.393Z,81.25
2022-10-06T04:37:16.548Z,81.29
2022-10-06T04:39:46.146Z,81.18
2022-10-06T04:42:14.757Z,80.85
2022-10-06T04:44:48.260Z,80.83
2022-10-06T04:47:21.794Z,80.95
2022-10-06T04:49:51.433Z,81.00
2022-10-06T04:52:20.529Z,80.78
2022-10-06T04:54:49.284Z,81.09
2022-10-06T04:57:19.027Z,80.89
2022-10-06T05:00:09.994Z,81.65
2022-10-06T05:02:44.230Z,81.40
2022-10-06T05:05:13.435Z,81.28
2022-10-06T05:07:44.857Z,81.37
2022-10-06T05:10:13.942Z,81.67
2022-10-06T05:12:43.109Z,81.49
2022-10-06T05:15:12.075Z,81.66
2022-10-06T05:17:40.895Z,82.10
2022-10-06T05:20:11.023Z,81.92
2022-10-06T05:22:40.239Z,81.59
2022-10-06T05:25:10.273Z,81.88
2022-10-06T05:27:39.038Z,82.53
2022-10-06T05:30:09.892Z,82.89
2022-10-06T05:32:41.128Z,82.78
2022-10-06T05:35:14.487Z,83.30
2022-10-06T05:38:05.260Z,84.15
2022-10-06T05:40:48.555Z,83.63
2022-10-06T05:43:32.803Z,83.13
2022-10-06T05:46:07.057Z,83.70
2022-10-06T05:48:35.679Z,84.13
2022-10-06T05:51:44.884Z,84.22
2022-10-06T05:54:21.807Z,84.40
2022-10-06T06:25:03.930Z,84.90
2022-10-06T06:28:21.714Z,84.77
2022-10-06T06:31:45.513Z,85.05
2022-10-06T06:34:43.546Z,84.54
2022-10-06T06:41:56.644Z,84.51
2022-10-06T06:44:52.173Z,84.65
2022-10-06T06:47:26.841Z,84.27
2022-10-06T06:49:55.661Z,84.93
2022-10-06T06:52:25.976Z,84.64
2022-10-06T06:54:56.507Z,84.36
2022-10-06T06:57:25.477Z,84.53
2022-10-06T06:59:56.435Z,84.33
2022-10-06T07:02:28.705Z,84.14
2022-10-06T07:04:57.728Z,83.56
2022-10-06T07:07:26.710Z,83.28
2022-10-06T07:09:55.447Z,83.24
2022-10-06T07:12:25.888Z,82.87
2022-10-06T07:15:16.402Z,82.78
2022-10-06T07:18:06.567Z,83.08
2022-10-06T07:20:54.165Z,82.95
2022-10-06T07:23:43.843Z,83.15
2022-10-06T07:26:21.860Z,83.72
2022-10-06T07:28:52.794Z,83.40
2022-10-06T07:31:21.989Z,83.15
2022-10-06T07:33:51.536Z,83.64
2022-10-06T07:36:21.339Z,83.55
2022-10-06T07:38:49.974Z,83.17
2022-10-06T07:41:20.786Z,83.47
2022-10-06T07:43:53.326Z,83.31
2022-10-06T07:46:22.820Z,83.28
2022-10-06T07:49:17.825Z,82.51
2022-10-06T07:51:47.095Z,82.53
2022-10-06T07:54:15.635Z,82.37
2022-10-06T07:56:55.824Z,82.00
2022-10-06T08:00:25.425Z,81.42
2022-10-06T08:08:04.838Z,80.67
2022-10-06T08:10:11.872Z,80.97
2022-10-06T08:10:33.490Z,79.90
2022-10-06T08:13:05.630Z,78.31
2022-10-06T08:15:35.668Z,78.12
2022-10-06T08:18:21.402Z,78.15
2022-10-06T08:20:57.897Z,77.97
2022-10-06T08:23:26.426Z,76.15
2022-10-06T08:26:03.145Z,75.01
2022-10-06T08:28:43.714Z,74.51
2022-10-06T08:31:15.904Z,74.45
2022-10-06T08:34:03.047Z,74.21
2022-10-06T08:37:15.813Z,73.59
2022-10-06T08:39:37.139Z,73.06
2022-10-06T08:42:51.015Z,72.65
2022-10-06T09:02:27.841Z,70.91
2022-10-06T09:04:59.874Z,69.10
2022-10-06T09:07:38.690Z,68.60
2022-10-06T09:10:22.641Z,68.26
2022-10-06T09:12:57.612Z,67.17
2022-10-06T09:15:34.507Z,66.57
2022-10-06T09:18:10.067Z,64.50
2022-10-06T09:20:43.999Z,62.52
2022-10-06T09:23:37.563Z,61.88
2022-10-06T09:26:10.905Z,58.75
2022-10-06T09:28:40.024Z,57.89
2022-10-06T09:31:22.598Z,57.15
2022-10-06T09:33:54.286Z,56.45
2022-10-06T09:36:23.642Z,56.48
2022-10-06T09:38:54.739Z,55.60
2022-10-06T09:41:28.416Z,55.22
2022-10-06T09:43:59.493Z,55.29
2022-10-06T09:46:35.094Z,55.50
2022-10-06T09:53:21.273Z,55.60
2022-10-06T09:55:54.407Z,55.70
2022-10-06T09:58:32.091Z,55.38
2022-10-06T10:01:02.780Z,54.76
2022-10-06T10:04:08.715Z,54.66
2022-10-06T10:06:41.223Z,55.10
2022-10-06T10:09:22.290Z,55.29
2022-10-06T10:12:24.171Z,54.97
2022-10-06T10:14:56.826Z,54.87
2022-10-06T10:17:40.537Z,54.68
2022-10-06T10:20:29.140Z,54.50
2022-10-06T10:23:04.095Z,53.46
2022-10-06T10:26:02.692Z,53.44
2022-10-06T10:29:04.300Z,53.71
2022-10-06T10:31:49.506Z,53.95
2022-10-06T10:34:42.155Z,54.45
2022-10-06T10:37:18.412Z,54.70
2022-10-06T10:39:55.788Z,55.21
2022-10-06T10:42:35.224Z,55.76
2022-10-06T10:45:16.456Z,56.10
2022-10-06T10:47:50.410Z,56.12
2022-10-06T10:50:30.575Z,55.49
2022-10-06T10:53:14.258Z,51.14
2022-10-06T10:55:49.048Z,50.93
2022-10-06T10:58:25.324Z,51.19
2022-10-06T11:01:04.244Z,50.73
2022-10-06T11:03:36.396Z,50.84
2022-10-06T11:06:23.008Z,49.80
2022-10-06T11:09:02.447Z,48.59
2022-10-06T11:11:52.090Z,48.97
2022-10-06T11:14:49.264Z,49.50
2022-10-06T11:17:44.309Z,49.28
2022-10-06T11:20:46.004Z,48.28
2022-10-06T11:23:43.273Z,47.62
2022-10-06T11:26:27.492Z,46.61
2022-10-06T11:29:07.117Z,46.64
2022-10-06T11:31:50.322Z,46.22
2022-10-06T11:34:22.369Z,45.32
2022-10-06T11:37:02.748Z,45.05
2022-10-06T11:39:42.650Z,44.65
2022-10-06T11:42:40.588Z,44.09
2022-10-06T11:45:16.876Z,43.51
2022-10-06T11:48:13.132Z,41.92
2022-10-06T11:50:49.381Z,40.87
2022-10-06T11:53:38.150Z,40.69
2022-10-06T11:56:45.460Z,40.74
2022-10-06T11:59:27.698Z,40.64
2022-10-06T12:02:03.300Z,41.27
2022-10-06T12:04:35.637Z,40.92
2022-10-06T12:07:08.013Z,40.88
2022-10-06T12:09:52.945Z,41.10
2022-10-06T12:13:39.102Z,41.01
2022-10-06T12:17:19.337Z,42.23
2022-10-06T12:20:22.359Z,42.77
2022-10-06T12:22:59.946Z,43.03
2022-10-06T12:25:38.784Z,43.05
2022-10-06T12:28:23.594Z,41.71
2022-10-06T12:31:17.943Z,41.13
2022-10-06T12:33:51.739Z,41.15
2022-10-06T12:36:28.310Z,41.51
2022-10-06T12:39:24.920Z,42.20
2022-10-06T12:42:07.660Z,42.43
2022-10-06T12:44:41.571Z,42.76
2022-10-06T12:47:18.511Z,43.30
2022-10-06T12:49:55.342Z,43.38
2022-10-06T12:52:52.435Z,43.76
2022-10-06T12:55:43.992Z,44.08
2022-10-06T12:58:28.558Z,43.65
2022-10-06T13:01:05.777Z,43.74
2022-10-06T13:03:40.056Z,43.13
2022-10-06T13:06:12.210Z,42.66
2022-10-06T13:08:44.130Z,42.96
2022-10-06T13:11:22.137Z,43.25
2022-10-06T13:13:56.273Z,43.06
2022-10-06T13:16:30.987Z,43.44
2022-10-06T13:19:02.231Z,42.58
2022-10-06T13:21:34.805Z,42.60
2022-10-06T13:24:07.066Z,42.53
2022-10-06T13:26:39.327Z,42.21
2022-10-06T13:29:20.588Z,42.01
2022-10-06T13:31:54.701Z,42.42
2022-10-06T13:34:34.793Z,42.01
2022-10-06T13:37:06.964Z,42.11
2022-10-06T13:39:39.567Z,42.20
2022-10-06T13:42:18.486Z,42.02
2022-10-06T13:44:58.594Z,42.10
2022-10-06T13:47:31.754Z,42.03
2022-10-06T13:50:08.316Z,42.32
2022-10-06T13:52:42.088Z,42.54
2022-10-06T13:55:22.137Z,42.41
2022-10-06T13:58:10.058Z,42.02
2022-10-06T14:00:55.997Z,42.44
2022-10-06T14:06:18.893Z,42.55
2022-10-06T14:08:54.683Z,42.14
2022-10-06T14:11:29.639Z,41.59
2022-10-06T14:14:04.376Z,41.60
2022-10-06T14:16:37.384Z,42.13
2022-10-06T14:19:30.130Z,42.07
2022-10-06T14:22:03.552Z,42.28
2022-10-06T14:24:37.602Z,42.79
2022-10-06T14:27:10.139Z,43.04
2022-10-06T14:29:42.144Z,42.98
2022-10-06T14:32:18.277Z,42.75
2022-10-06T14:34:50.504Z,42.99
2022-10-06T14:37:22.650Z,43.07
2022-10-06T14:39:56.352Z,43.62
2022-10-06T14:42:28.655Z,43.66
2022-10-06T14:45:01.226Z,43.42
2022-10-06T14:47:34.064Z,43.07
2022-10-06T14:50:07.273Z,43.32
2022-10-06T14:52:40.570Z,43.58
2022-10-06T14:55:13.180Z,44.05
2022-10-06T14:57:45.822Z,43.46
2022-10-06T15:00:21.018Z,43.60
2022-10-06T15:02:53.078Z,43.70
2022-10-06T15:05:25.490Z,43.58
2022-10-06T15:08:11.337Z,43.80
2022-10-06T15:10:53.884Z,43.79
2022-10-06T15:13:25.945Z,43.70
2022-10-06T15:16:02.248Z,43.61
2022-10-06T15:18:38.421Z,43.88
2022-10-06T15:21:14.243Z,44.31
2022-10-06T15:23:48.081Z,44.28
2022-10-06T15:26:37.953Z,44.81
2022-10-06T15:29:09.881Z,44.88
2022-10-06T15:31:43.890Z,45.85
2022-10-06T15:34:17.105Z,45.69
2022-10-06T15:36:51.948Z,44.80
2022-10-06T15:39:23.711Z,44.60
2022-10-06T15:41:56.596Z,45.18
2022-10-06T15:44:32.185Z,44.78
2022-10-06T15:47:05.698Z,44.99
2022-10-06T15:49:41.730Z,45.20
2022-10-06T15:52:17.154Z,45.40
2022-10-06T15:54:49.925Z,45.92
2022-10-06T15:57:22.235Z,45.88
2022-10-06T15:59:54.289Z,45.94
2022-10-06T16:02:31.644Z,46.71
2022-10-06T16:05:39.800Z,47.57
2022-10-06T16:08:14.929Z,47.29
2022-10-06T16:10:51.927Z,47.52
2022-10-06T16:13:47.746Z,47.74
2022-10-06T16:16:19.769Z,47.92
2022-10-06T16:18:52.328Z,48.05
2022-10-06T16:21:24.820Z,48.19
2022-10-06T16:23:58.756Z,48.81
2022-10-06T16:26:37.621Z,49.04
2022-10-06T16:29:13.630Z,49.42
2022-10-06T16:31:45.928Z,49.59
2022-10-06T16:34:19.118Z,50.07
2022-10-06T16:36:51.776Z,50.44
2022-10-06T16:39:24.992Z,50.71
2022-10-06T16:52:21.837Z,51.48
2022-10-06T16:54:56.128Z,51.91
2022-10-06T16:57:28.576Z,51.86
2022-10-06T17:00:01.389Z,52.36
2022-10-06T17:02:34.340Z,52.90
2022-10-06T17:05:07.412Z,52.80
2022-10-06T17:07:39.461Z,53.06
2022-10-06T17:10:20.884Z,52.92
2022-10-06T17:12:53.879Z,53.08
2022-10-06T17:15:29.017Z,53.16
2022-10-06T17:18:03.419Z,53.71
2022-10-06T17:20:35.470Z,53.49
2022-10-06T17:23:07.526Z,53.47
2022-10-06T17:25:40.940Z,53.82
2022-10-06T17:28:14.839Z,54.34
2022-10-06T17:30:59.439Z,54.98
2022-10-06T17:33:34.755Z,55.13
2022-10-06T17:36:10.174Z,55.49
2022-10-06T17:38:44.224Z,55.36
2022-10-06T17:41:18.554Z,55.66
2022-10-06T17:43:52.941Z,56.20
2022-10-06T17:46:26.447Z,56.20
2022-10-06T17:49:03.062Z,56.01
2022-10-06T17:51:36.064Z,56.08
2022-10-06T17:54:12.994Z,56.15
2022-10-06T17:56:47.067Z,56.01
2022-10-06T17:59:21.710Z,55.84
2022-10-06T18:01:56.625Z,56.44
2022-10-06T18:04:27.332Z,57.15
2022-10-06T18:07:00.203Z,57.10
2022-10-06T18:09:32.315Z,57.30
2022-10-06T18:12:04.930Z,57.59
2022-10-06T18:14:36.905Z,58.00
2022-10-06T18:17:08.897Z,58.15
2022-10-06T18:19:40.944Z,58.27
2022-10-06T18:22:13.789Z,58.48
2022-10-06T18:24:45.864Z,58.97
2022-10-06T18:27:18.351Z,58.92
2022-10-06T18:29:50.467Z,59.19
2022-10-06T18:38:08.303Z,58.80
2022-10-06T18:40:41.284Z,59.10
2022-10-06T18:43:14.408Z,59.48
2022-10-06T18:46:03.795Z,59.68
2022-10-06T18:48:56.260Z,59.94
2022-10-06T18:51:31.887Z,60.33
2022-10-06T18:54:06.201Z,60.36
2022-10-06T18:56:39.636Z,60.37
2022-10-06T18:59:13.851Z,60.38
2022-10-06T19:01:48.146Z,60.01
2022-10-06T19:04:23.288Z,60.27
2022-10-06T19:06:54.995Z,60.30
2022-10-06T19:09:28.295Z,60.40
2022-10-06T19:12:01.974Z,60.51
2022-10-06T19:14:44.179Z,60.51
2022-10-06T19:17:18.111Z,60.63
2022-10-06T19:19:51.359Z,60.69
2022-10-06T19:22:25.194Z,60.57
2022-10-06T19:24:57.596Z,60.82
2022-10-06T19:27:31.878Z,60.99
2022-10-06T19:30:04.297Z,61.08
2022-10-06T19:32:36.409Z,61.21
2022-10-06T19:35:10.606Z,60.46
2022-10-06T19:37:43.314Z,60.64
2022-10-06T19:40:15.785Z,61.20
2022-10-06T19:42:51.207Z,61.21
2022-10-06T19:45:23.812Z,61.55
2022-10-06T19:47:57.862Z,61.43
2022-10-06T19:50:30.326Z,61.22
2022-10-06T19:53:04.834Z,61.28
2022-10-06T19:55:37.623Z,61.20
2022-10-06T19:58:10.078Z,61.01
2022-10-06T20:00:43.465Z,61.39
2022-10-06T20:03:15.643Z,60.81
2022-10-06T20:05:47.608Z,60.61
2022-10-06T20:08:20.262Z,62.16
2022-10-06T20:11:01.789Z,62.69
2022-10-06T20:13:38.484Z,62.61
2022-10-06T20:16:17.276Z,62.38
2022-10-06T20:18:50.796Z,62.64
2022-10-06T20:21:25.505Z,62.67
2022-10-06T20:23:59.546Z,62.50
2022-10-06T20:26:33.357Z,62.65
2022-10-06T20:29:08.713Z,62.39
2022-10-06T20:31:43.213Z,61.11
2022-10-06T20:34:18.607Z,61.63
2022-10-06T20:36:55.727Z,62.23
2022-10-06T20:39:46.116Z,62.09
2022-10-06T20:42:19.740Z,62.13
2022-10-06T20:44:51.904Z,61.97
2022-10-06T20:47:24.063Z,62.33
2022-10-06T20:50:00.899Z,62.60
2022-10-06T20:52:41.053Z,62.51
2022-10-06T20:55:18.069Z,62.48
2022-10-06T20:57:52.067Z,62.55
2022-10-06T21:00:24.452Z,62.49
2022-10-06T21:02:57.646Z,62.45
2022-10-06T21:05:33.506Z,62.23
2022-10-06T21:08:05.590Z,61.98
2022-10-06T21:10:37.827Z,62.50
2022-10-06T21:13:09.873Z,62.49
2022-10-06T21:15:47.263Z,62.52
2022-10-06T21:18:19.635Z,62.77
2022-10-06T21:21:00.608Z,62.94
2022-10-06T21:23:37.662Z,62.58
2022-10-06T21:26:12.522Z,62.71
2022-10-06T21:28:45.063Z,62.84
2022-10-06T21:31:19.249Z,63.41
2022-10-06T21:33:52.660Z,63.73
2022-10-06T21:36:26.781Z,63.56
2022-10-06T21:39:00.491Z,62.92
2022-10-06T21:41:37.755Z,63.10
2022-10-06T21:44:11.737Z,63.56
2022-10-06T21:46:47.379Z,63.52
2022-10-06T21:49:20.979Z,63.10
2022-10-06T21:51:54.832Z,63.32
2022-10-06T21:54:27.324Z,63.46
2022-10-06T21:56:59.737Z,63.39
2022-10-06T21:59:31.807Z,63.39
2022-10-06T22:02:03.882Z,63.37
2022-10-06T22:04:37.626Z,63.29
2022-10-06T22:07:09.682Z,63.30
2022-10-06T22:09:42.236Z,63.32
2022-10-06T22:12:17.188Z,63.75
2022-10-06T22:14:49.311Z,63.81
2022-10-06T22:17:21.344Z,63.75
2022-10-06T22:19:53.521Z,63.93
2022-10-06T22:22:25.471Z,63.14
2022-10-06T22:24:57.350Z,62.42
2022-10-06T22:27:30.177Z,62.68
2022-10-06T22:30:02.228Z,63.41
2022-10-06T22:32:34.474Z,63.64
2022-10-06T22:35:07.996Z,63.23
2022-10-06T22:37:39.956Z,63.19
2022-10-06T22:40:13.555Z,63.16
2022-10-06T22:42:45.510Z,63.75
2022-10-06T22:45:17.676Z,63.72
2022-10-06T22:47:49.630Z,63.45
2022-10-06T22:50:21.554Z,63.19
2022-10-06T22:53:30.144Z,63.12
2022-10-06T22:56:03.718Z,62.99
2022-10-06T22:58:36.340Z,63.67
2022-10-06T23:01:15.981Z,64.11
2022-10-06T23:03:48.916Z,65.19
2022-10-06T23:06:21.223Z,65.68
2022-10-06T23:08:53.529Z,65.52
2022-10-06T23:11:25.479Z,65.47
2022-10-06T23:13:58.030Z,65.75
2022-10-06T23:16:29.894Z,65.16
2022-10-06T23:19:01.791Z,65.29
2022-10-06T23:21:34.011Z,65.06
2022-10-06T23:24:05.986Z,65.56
2022-10-06T23:26:37.805Z,66.46
2022-10-06T23:29:12.194Z,66.42
2022-10-06T23:31:44.149Z,66.23
2022-10-06T23:34:16.079Z,65.54
2022-10-06T23:36:48.306Z,65.73
2022-10-06T23:39:20.308Z,66.38
2022-10-06T23:41:52.268Z,65.95
2022-10-06T23:44:24.311Z,65.31
2022-10-06T23:46:56.153Z,65.47
2022-10-06T23:49:28.242Z,65.56
2022-10-06T23:52:00.204Z,65.40
2022-10-06T23:54:32.483Z,65.72
2022-10-06T23:57:04.456Z,65.74
2022-10-06T23:59:36.553Z,66.21
